Time;durP1;ratioP1;P1;durP2;ratioP2;P2;SDS_P1;SDS_P2;PMS_P1;PMS_P2;Temp;Humidity;BMP_temperature;BMP_pressure;BME280_temperature;BME280_humidity;BME280_pressure;Samples;Min_cycle;Max_cycle;Signal;HPM_P1;HPM_P2
2023/11/16 00:01:32;;;;;;;13.00;4.32;;;5.60;99.90;;;;;;5090104;28;20089;-60
2023/11/16 00:03:58;;;;;;;12.82;4.30;;;5.50;99.90;;;;;;5088978;28;20036;-60
2023/11/16 00:06:25;;;;;;;9.63;4.28;;;5.50;99.90;;;;;;5079059;28;20037;-59
2023/11/16 00:08:52;;;;;;;10.30;4.97;;;5.50;99.90;;;;;;5074508;28;20524;-59
2023/11/16 00:11:19;;;;;;;11.75;3.95;;;5.50;99.90;;;;;;5095804;28;20439;-59
2023/11/16 00:13:46;;;;;;;10.15;3.53;;;5.50;99.90;;;;;;5095641;28;20044;-59
2023/11/16 00:16:14;;;;;;;13.25;4.32;;;5.50;99.90;;;;;;5095343;28;20036;-59
2023/11/16 00:18:41;;;;;;;8.02;3.13;;;5.50;99.90;;;;;;5075570;28;20041;-58
2023/11/16 00:21:08;;;;;;;8.85;3.63;;;5.60;99.90;;;;;;5076044;28;20068;-58
2023/11/16 00:23:35;;;;;;;13.48;3.83;;;5.60;99.90;;;;;;5075875;28;20047;-59
2023/11/16 00:26:02;;;;;;;11.23;4.18;;;5.60;99.90;;;;;;5075891;28;20037;-58
2023/11/16 00:28:29;;;;;;;14.32;3.50;;;5.60;99.90;;;;;;5075417;28;20098;-59
2023/11/16 00:30:56;;;;;;;10.80;3.65;;;5.60;99.90;;;;;;5074617;28;20466;-59
2023/11/16 00:33:23;;;;;;;11.98;3.65;;;5.60;99.90;;;;;;5081344;28;20052;-59
2023/11/16 00:35:51;;;;;;;12.60;5.30;;;5.60;99.90;;;;;;5076932;28;20048;-59
2023/11/16 00:38:18;;;;;;;9.55;3.55;;;5.70;99.90;;;;;;5093621;28;20040;-59
2023/11/16 00:40:46;;;;;;;11.85;3.50;;;5.70;99.90;;;;;;5093477;28;20055;-59
2023/11/16 00:43:13;;;;;;;11.65;3.70;;;5.70;99.90;;;;;;5094074;28;20036;-59
2023/11/16 00:45:41;;;;;;;11.73;3.88;;;5.70;99.90;;;;;;5093776;28;20366;-59
2023/11/16 00:48:09;;;;;;;12.15;3.75;;;5.70;99.90;;;;;;5088765;28;20519;-59
2023/11/16 00:50:36;;;;;;;9.45;3.42;;;5.70;99.90;;;;;;5094705;28;20093;-60
2023/11/16 00:53:03;;;;;;;13.18;3.53;;;5.70;99.90;;;;;;5093687;28;20101;-60
2023/11/16 00:55:31;;;;;;;8.32;3.10;;;5.80;99.90;;;;;;5094583;28;20040;-59
2023/11/16 00:58:00;;;;;;;9.52;3.30;;;5.80;99.90;;;;;;5093480;28;20090;-59
2023/11/16 01:00:31;;;;;;;11.85;3.40;;;5.80;99.90;;;;;;5074890;28;20041;-60
2023/11/16 01:02:59;;;;;;;13.90;4.28;;;5.80;99.90;;;;;;5083986;28;20497;-59
2023/11/16 01:05:26;;;;;;;13.27;4.05;;;5.80;99.90;;;;;;5075067;28;20032;-60
2023/11/16 01:07:53;;;;;;;9.60;3.92;;;5.80;99.90;;;;;;5074540;28;20040;-60
2023/11/16 01:10:24;;;;;;;11.75;4.20;;;5.80;99.90;;;;;;5074584;28;20044;-60
2023/11/16 01:12:54;;;;;;;8.10;3.40;;;5.80;99.90;;;;;;5074499;28;20102;-60
2023/11/16 01:15:22;;;;;;;14.48;3.83;;;5.80;99.90;;;;;;5074477;28;20044;-60
2023/11/16 01:17:51;;;;;;;10.10;3.63;;;5.80;99.90;;;;;;5089635;28;20439;-60
2023/11/16 01:20:18;;;;;;;10.23;3.38;;;5.80;99.90;;;;;;5094336;28;20040;-60
2023/11/16 01:22:50;;;;;;;7.38;3.58;;;5.80;99.90;;;;;;5092996;28;20491;-60
2023/11/16 01:25:20;;;;;;;12.43;3.53;;;5.80;99.90;;;;;;5093020;28;20131;-60
2023/11/16 01:27:56;;;;;;;12.02;3.85;;;5.80;99.90;;;;;;5093955;28;20040;-59
2023/11/16 01:30:23;;;;;;;13.88;3.80;;;5.80;99.90;;;;;;5093205;28;20076;-59
2023/11/16 01:32:50;;;;;;;7.45;3.17;;;5.80;99.90;;;;;;5092603;28;20040;-60
2023/11/16 01:35:19;;;;;;;8.95;4.03;;;5.90;99.90;;;;;;5094378;28;20036;-59
2023/11/16 01:37:46;;;;;;;8.27;3.53;;;5.90;99.90;;;;;;5075375;28;20374;-59
2023/11/16 01:40:13;;;;;;;13.20;3.20;;;5.90;99.90;;;;;;5073576;28;20044;-60
2023/11/16 01:42:39;;;;;;;8.35;3.17;;;5.90;99.90;;;;;;5073111;28;20041;-60
2023/11/16 01:45:08;;;;;;;14.02;3.63;;;5.90;99.90;;;;;;5074302;28;20051;-60
2023/11/16 01:47:35;;;;;;;13.95;4.28;;;6.00;99.90;;;;;;5085579;28;20047;-59
2023/11/16 01:50:02;;;;;;;16.10;3.70;;;6.00;99.90;;;;;;5093492;28;20051;-60
2023/11/16 01:52:29;;;;;;;10.90;3.70;;;6.00;99.90;;;;;;5093609;28;20042;-59
2023/11/16 01:54:56;;;;;;;12.00;4.45;;;6.00;99.90;;;;;;5093694;28;20452;-60
2023/11/16 01:57:22;;;;;;;10.15;3.95;;;6.00;99.90;;;;;;5093548;28;20044;-59
2023/11/16 01:59:50;;;;;;;15.20;3.72;;;6.00;99.90;;;;;;5093307;28;20047;-59
2023/11/16 02:02:17;;;;;;;12.32;3.80;;;6.00;99.90;;;;;;5092388;28;20047;-59
2023/11/16 02:04:44;;;;;;;15.07;4.10;;;6.00;99.90;;;;;;5075269;28;20040;-59
2023/11/16 02:07:11;;;;;;;14.98;3.65;;;6.00;99.90;;;;;;5093604;28;20120;-62
2023/11/16 02:09:38;;;;;;;9.35;3.47;;;6.00;99.90;;;;;;5091904;28;20055;-59
2023/11/16 02:12:07;;;;;;;9.90;3.22;;;6.00;99.90;;;;;;5093248;28;20455;-59
2023/11/16 02:14:34;;;;;;;10.65;3.85;;;6.00;99.90;;;;;;5093313;28;20054;-59
2023/11/16 02:17:00;;;;;;;9.00;3.72;;;6.00;99.90;;;;;;5093189;28;20036;-59
2023/11/16 02:19:29;;;;;;;9.45;3.20;;;6.00;99.90;;;;;;5092167;28;20813;-59
2023/11/16 02:21:56;;;;;;;10.45;3.50;;;6.00;99.90;;;;;;5091787;28;20042;-59
2023/11/16 02:24:23;;;;;;;9.20;3.38;;;6.00;99.90;;;;;;5091965;28;20397;-59
2023/11/16 02:26:51;;;;;;;12.10;3.65;;;6.00;99.90;;;;;;5093110;28;20485;-59
2023/11/16 02:29:18;;;;;;;10.52;3.25;;;6.00;99.90;;;;;;5074833;28;20562;-59
2023/11/16 02:31:45;;;;;;;10.88;3.50;;;6.00;99.90;;;;;;5092812;28;20051;-60
2023/11/16 02:34:12;;;;;;;9.40;3.80;;;6.00;99.90;;;;;;5090546;28;20075;-60
2023/11/16 02:36:38;;;;;;;7.22;2.90;;;6.00;99.90;;;;;;5091867;28;20131;-60
2023/11/16 02:39:07;;;;;;;6.82;2.97;;;6.00;99.90;;;;;;5093069;28;20036;-59
2023/11/16 02:41:34;;;;;;;10.07;2.95;;;6.00;99.90;;;;;;5092033;28;20036;-59
2023/11/16 02:44:02;;;;;;;10.63;2.92;;;6.00;99.90;;;;;;5091493;28;20078;-59
2023/11/16 02:46:30;;;;;;;11.32;3.58;;;6.00;99.90;;;;;;5092947;28;20032;-59
2023/11/16 02:48:57;;;;;;;7.97;3.22;;;6.00;99.90;;;;;;5087590;28;20451;-59
2023/11/16 02:51:24;;;;;;;11.15;3.05;;;6.00;99.90;;;;;;5096196;28;20075;-60
2023/11/16 02:53:51;;;;;;;9.60;3.17;;;6.10;99.90;;;;;;5096960;28;20044;-59
2023/11/16 02:56:19;;;;;;;8.80;3.05;;;6.10;99.90;;;;;;5097191;28;20048;-60
2023/11/16 02:58:46;;;;;;;10.65;2.97;;;6.10;99.90;;;;;;5096704;28;20060;-59
2023/11/16 03:01:14;;;;;;;10.70;2.85;;;6.10;99.90;;;;;;5096794;28;20451;-59
2023/11/16 03:03:41;;;;;;;9.43;3.20;;;6.10;99.90;;;;;;5096769;28;20036;-59
2023/11/16 03:06:08;;;;;;;11.27;3.00;;;6.10;99.90;;;;;;5096736;28;20071;-65
2023/11/16 03:08:35;;;;;;;8.18;3.67;;;6.10;99.90;;;;;;5096679;28;20040;-66
2023/11/16 03:11:02;;;;;;;8.52;3.30;;;6.10;99.90;;;;;;5096740;28;20048;-65
2023/11/16 03:13:30;;;;;;;8.35;3.22;;;6.10;99.90;;;;;;5096451;28;20518;-65
2023/11/16 03:15:56;;;;;;;12.50;3.45;;;6.10;99.90;;;;;;5095378;28;20040;-66
2023/11/16 03:18:23;;;;;;;9.63;3.33;;;6.00;99.90;;;;;;5080149;28;20170;-65
2023/11/16 03:20:50;;;;;;;14.48;3.10;;;6.00;99.90;;;;;;5077196;28;20059;-65
2023/11/16 03:23:17;;;;;;;9.70;2.97;;;6.00;99.90;;;;;;5075849;28;20131;-65
2023/11/16 03:25:44;;;;;;;8.25;2.95;;;6.00;99.90;;;;;;5076929;28;21007;-66
2023/11/16 03:28:11;;;;;;;6.13;3.00;;;6.00;99.90;;;;;;5076526;28;20048;-66
2023/11/16 03:30:38;;;;;;;9.77;2.83;;;6.00;99.90;;;;;;5076805;28;20036;-66
2023/11/16 03:33:08;;;;;;;8.23;3.08;;;6.00;99.90;;;;;;5076574;28;20127;-64
2023/11/16 03:35:35;;;;;;;8.10;2.75;;;6.00;99.90;;;;;;5076762;28;20203;-61
2023/11/16 03:38:02;;;;;;;12.90;3.08;;;6.10;99.90;;;;;;5083449;28;20472;-59
2023/11/16 03:40:30;;;;;;;12.18;3.35;;;6.00;99.90;;;;;;5092449;28;20044;-59
2023/11/16 03:42:57;;;;;;;11.98;3.60;;;6.00;99.90;;;;;;5096256;28;20046;-60
2023/11/16 03:45:24;;;;;;;13.40;3.45;;;6.00;99.90;;;;;;5093156;28;20123;-59
2023/11/16 03:47:51;;;;;;;10.43;3.47;;;6.00;99.90;;;;;;5076436;28;20128;-59
2023/11/16 03:50:18;;;;;;;8.35;2.88;;;6.00;99.90;;;;;;5076602;28;20094;-59
2023/11/16 03:52:45;;;;;;;13.60;3.63;;;6.00;99.90;;;;;;5076721;28;20044;-58
2023/11/16 03:55:12;;;;;;;8.25;2.90;;;6.00;99.90;;;;;;5076216;28;20071;-59
2023/11/16 03:57:40;;;;;;;10.90;3.05;;;6.00;99.90;;;;;;5076484;28;20394;-59
2023/11/16 04:00:07;;;;;;;10.50;3.13;;;6.00;99.90;;;;;;5076231;28;20123;-59
2023/11/16 04:02:37;;;;;;;8.25;2.55;;;6.00;99.90;;;;;;5075876;28;20048;-59
2023/11/16 04:05:05;;;;;;;10.40;2.95;;;6.00;99.90;;;;;;5076288;28;20072;-60
2023/11/16 04:07:32;;;;;;;7.47;3.20;;;6.00;99.90;;;;;;5076295;28;20032;-59
2023/11/16 04:10:00;;;;;;;8.75;3.42;;;6.00;99.90;;;;;;5093507;28;20451;-59
2023/11/16 04:12:27;;;;;;;7.68;2.90;;;6.00;99.90;;;;;;5095629;28;20110;-59
2023/11/16 04:14:54;;;;;;;8.68;3.53;;;5.90;99.90;;;;;;5095618;28;20050;-60
2023/11/16 04:17:21;;;;;;;8.13;3.47;;;5.90;99.90;;;;;;5094191;28;20047;-59
2023/11/16 04:19:48;;;;;;;9.57;3.22;;;5.90;99.90;;;;;;5094167;28;20105;-60
2023/11/16 04:22:15;;;;;;;10.73;4.18;;;5.90;99.90;;;;;;5094651;28;20427;-59
2023/11/16 04:24:41;;;;;;;11.02;3.53;;;5.90;99.90;;;;;;5095130;28;20072;-60
2023/11/16 04:27:09;;;;;;;7.95;2.80;;;5.90;99.90;;;;;;5093948;28;20104;-60
2023/11/16 04:29:38;;;;;;;9.73;2.85;;;5.90;99.90;;;;;;5095088;28;20459;-59
2023/11/16 04:32:05;;;;;;;14.18;3.13;;;5.90;99.90;;;;;;5093931;28;20519;-60
2023/11/16 04:34:32;;;;;;;14.27;3.05;;;6.00;99.90;;;;;;5094817;28;20057;-59
2023/11/16 04:37:04;;;;;;;11.55;3.10;;;6.00;99.90;;;;;;5095013;28;20113;-59
2023/11/16 04:39:31;;;;;;;12.38;3.45;;;6.00;99.90;;;;;;5094728;28;20035;-59
2023/11/16 04:41:58;;;;;;;10.82;2.95;;;6.10;99.90;;;;;;5095089;28;20089;-59
2023/11/16 04:44:25;;;;;;;8.35;2.55;;;6.00;99.90;;;;;;5094783;28;20040;-59
2023/11/16 04:46:52;;;;;;;12.30;3.05;;;6.10;99.90;;;;;;5094900;28;20427;-60
2023/11/16 04:49:19;;;;;;;7.72;2.00;;;6.10;99.90;;;;;;5089166;28;20043;-59
2023/11/16 04:51:47;;;;;;;10.35;2.85;;;6.10;99.90;;;;;;5095028;28;20397;-60
2023/11/16 04:54:13;;;;;;;6.65;2.30;;;6.10;99.90;;;;;;5094777;28;20123;-59
2023/11/16 04:56:40;;;;;;;8.25;2.67;;;6.10;99.90;;;;;;5094755;28;20036;-60
2023/11/16 04:59:10;;;;;;;10.95;2.63;;;6.10;99.90;;;;;;5091949;28;20542;-65
2023/11/16 05:01:37;;;;;;;8.25;2.38;;;6.10;99.90;;;;;;5094596;28;20066;-65
2023/11/16 05:04:04;;;;;;;12.02;2.47;;;6.10;99.90;;;;;;5094562;28;20071;-65
2023/11/16 05:06:31;;;;;;;5.75;2.25;;;6.10;99.90;;;;;;5094426;28;20043;-65
2023/11/16 05:08:57;;;;;;;8.70;2.10;;;6.20;99.90;;;;;;5093290;28;20127;-65
2023/11/16 05:11:24;;;;;;;7.57;2.30;;;6.20;99.90;;;;;;5094309;28;20047;-65
2023/11/16 05:13:51;;;;;;;6.88;1.85;;;6.20;99.90;;;;;;5093298;28;20064;-65
2023/11/16 05:16:18;;;;;;;6.65;2.00;;;6.20;99.90;;;;;;5094281;28;20047;-64
2023/11/16 05:18:45;;;;;;;7.85;2.00;;;6.20;99.90;;;;;;5094003;28;20054;-65
2023/11/16 05:21:12;;;;;;;13.05;2.70;;;6.20;99.90;;;;;;5093674;28;20067;-64
2023/11/16 05:23:43;;;;;;;9.07;2.92;;;6.30;99.90;;;;;;5094372;28;20496;-66
2023/11/16 05:26:10;;;;;;;9.50;2.50;;;6.30;99.90;;;;;;5094091;28;20048;-65
2023/11/16 05:28:37;;;;;;;8.90;2.35;;;6.30;99.90;;;;;;5093833;28;20044;-65
2023/11/16 05:31:04;;;;;;;8.75;2.38;;;6.30;99.90;;;;;;5093992;28;20392;-65
2023/11/16 05:33:32;;;;;;;7.63;2.00;;;6.30;99.90;;;;;;5093698;28;20052;-64
2023/11/16 05:35:59;;;;;;;7.22;2.10;;;6.30;99.90;;;;;;5093763;28;20072;-65
2023/11/16 05:38:26;;;;;;;5.45;1.98;;;6.30;99.90;;;;;;5093757;28;20036;-65
2023/11/16 05:40:53;;;;;;;5.45;2.30;;;6.30;99.90;;;;;;5093585;28;20085;-65
2023/11/16 05:43:20;;;;;;;7.63;2.05;;;6.30;99.90;;;;;;5093933;28;20560;-65
2023/11/16 05:45:47;;;;;;;13.18;3.10;;;6.30;99.90;;;;;;5093722;28;20036;-65
2023/11/16 05:48:15;;;;;;;8.40;2.70;;;6.20;99.90;;;;;;5086987;28;20051;-65
2023/11/16 05:50:42;;;;;;;10.05;2.67;;;6.30;99.90;;;;;;5074524;28;20105;-65
2023/11/16 05:53:11;;;;;;;10.05;2.42;;;6.30;99.90;;;;;;5073602;28;20053;-65
2023/11/16 05:55:38;;;;;;;8.88;2.95;;;6.30;99.90;;;;;;5083914;28;20500;-65
2023/11/16 05:58:07;;;;;;;7.93;2.50;;;6.40;99.90;;;;;;5093555;28;20054;-64
2023/11/16 06:00:37;;;;;;;9.13;2.55;;;6.40;99.90;;;;;;5092062;28;20044;-65
2023/11/16 06:03:05;;;;;;;8.70;2.20;;;6.50;99.90;;;;;;5093663;28;20055;-65
2023/11/16 06:05:32;;;;;;;10.38;2.28;;;6.50;99.90;;;;;;5089527;28;20098;-65
2023/11/16 06:07:59;;;;;;;12.48;2.83;;;6.50;99.90;;;;;;5073888;28;20043;-65
2023/11/16 06:10:26;;;;;;;11.98;3.22;;;6.50;99.90;;;;;;5072887;28;20059;-65
2023/11/16 06:12:57;;;;;;;12.23;2.72;;;6.50;99.90;;;;;;5074350;28;20124;-66
2023/11/16 06:15:25;;;;;;;11.43;2.80;;;6.50;99.90;;;;;;5091062;28;20055;-65
2023/11/16 06:17:55;;;;;;;10.25;3.25;;;6.50;99.90;;;;;;5093231;28;20044;-64
2023/11/16 06:20:22;;;;;;;12.05;3.03;;;6.50;99.90;;;;;;5093020;28;20044;-65
2023/11/16 06:22:50;;;;;;;10.13;2.67;;;6.50;99.90;;;;;;5091980;28;20052;-65
2023/11/16 06:25:17;;;;;;;12.32;2.90;;;6.50;99.90;;;;;;5092880;28;20050;-65
2023/11/16 06:27:45;;;;;;;7.82;2.65;;;6.50;99.90;;;;;;5093159;28;20040;-65
2023/11/16 06:30:15;;;;;;;11.70;2.67;;;6.50;99.90;;;;;;5092989;28;20040;-65
2023/11/16 06:32:42;;;;;;;10.35;2.80;;;6.50;99.90;;;;;;5093033;28;20131;-65
2023/11/16 06:35:11;;;;;;;9.07;2.60;;;6.50;99.90;;;;;;5091504;28;20064;-65
2023/11/16 06:37:38;;;;;;;13.88;3.05;;;6.40;99.90;;;;;;5092852;28;20122;-66
2023/11/16 06:40:05;;;;;;;9.63;2.67;;;6.30;99.90;;;;;;5092562;28;20051;-65
2023/11/16 06:42:36;;;;;;;9.07;3.03;;;6.30;99.90;;;;;;5092555;28;20039;-64
2023/11/16 06:45:05;;;;;;;8.05;2.60;;;6.30;99.90;;;;;;5092823;28;20044;-65
2023/11/16 06:47:32;;;;;;;13.50;2.97;;;6.30;99.90;;;;;;5092706;28;20510;-65
2023/11/16 06:49:59;;;;;;;10.20;2.80;;;6.30;99.90;;;;;;5092777;28;20048;-64
2023/11/16 06:52:27;;;;;;;8.43;2.42;;;6.30;99.90;;;;;;5093028;28;20044;-64
2023/11/16 06:54:56;;;;;;;7.85;2.90;;;6.30;99.90;;;;;;5092922;28;20124;-64
2023/11/16 06:57:26;;;;;;;9.18;2.90;;;6.30;99.90;;;;;;5072945;28;20047;-66
2023/11/16 06:59:53;;;;;;;8.88;2.60;;;6.30;99.90;;;;;;5072917;28;20036;-65
2023/11/16 07:02:21;;;;;;;11.35;2.53;;;6.40;99.90;;;;;;5072947;28;20490;-65
2023/11/16 07:04:48;;;;;;;9.38;2.72;;;6.40;99.90;;;;;;5073043;28;20037;-65
2023/11/16 07:07:15;;;;;;;6.95;2.55;;;6.50;99.90;;;;;;5072881;28;20072;-65
2023/11/16 07:09:44;;;;;;;13.80;2.60;;;6.50;99.90;;;;;;5071849;28;20040;-65
2023/11/16 07:12:12;;;;;;;12.30;2.50;;;6.50;99.90;;;;;;5073163;28;20052;-61
2023/11/16 07:14:39;;;;;;;9.07;2.47;;;6.50;99.90;;;;;;5085710;28;20044;-59
2023/11/16 07:17:18;;;;;;;12.98;3.40;;;6.50;99.90;;;;;;5092468;28;20040;-59
2023/11/16 07:19:47;;;;;;;9.70;2.72;;;6.50;99.90;;;;;;5092399;28;20072;-59
2023/11/16 07:22:14;;;;;;;9.55;2.38;;;6.50;99.90;;;;;;5092872;28;20532;-60
2023/11/16 07:24:43;;;;;;;10.63;3.10;;;6.60;99.90;;;;;;5092381;28;20225;-65
2023/11/16 07:27:11;;;;;;;11.57;2.40;;;6.60;99.90;;;;;;5092876;28;20040;-65
2023/11/16 07:29:39;;;;;;;10.82;2.88;;;6.60;99.90;;;;;;5092537;28;20042;-65
2023/11/16 07:32:07;;;;;;;11.10;2.72;;;6.60;99.90;;;;;;5092471;28;20118;-65
2023/11/16 07:34:35;;;;;;;8.23;2.63;;;6.60;99.90;;;;;;5092352;28;20052;-64
2023/11/16 07:37:02;;;;;;;13.98;3.10;;;6.60;99.90;;;;;;5093075;28;20036;-65
2023/11/16 07:39:29;;;;;;;11.13;3.30;;;6.60;99.90;;;;;;5095802;28;20450;-65
2023/11/16 07:41:59;;;;;;;10.05;3.00;;;6.60;99.90;;;;;;5096315;28;20036;-65
2023/11/16 07:44:25;;;;;;;16.02;2.75;;;6.60;99.90;;;;;;5096005;28;20123;-65
2023/11/16 07:46:53;;;;;;;13.25;2.70;;;6.60;99.90;;;;;;5095899;28;20071;-65
2023/11/16 07:49:19;;;;;;;8.38;3.03;;;6.60;99.90;;;;;;5095781;28;20055;-65
2023/11/16 07:51:46;;;;;;;14.88;3.00;;;6.60;99.90;;;;;;5096032;28;20153;-65
2023/11/16 07:54:15;;;;;;;10.63;2.55;;;6.60;99.90;;;;;;5095646;28;20052;-65
2023/11/16 07:56:49;;;;;;;12.52;3.03;;;6.60;99.90;;;;;;5095938;28;20497;-65
2023/11/16 07:59:18;;;;;;;8.52;2.90;;;6.60;99.90;;;;;;5089232;28;20044;-65
2023/11/16 08:01:55;;;;;;;8.82;2.88;;;6.60;99.90;;;;;;5076173;28;20494;-64
2023/11/16 08:04:23;;;;;;;12.05;2.75;;;6.60;99.90;;;;;;5076469;28;20041;-64
2023/11/16 08:06:51;;;;;;;13.25;2.92;;;6.70;99.90;;;;;;5074881;28;20135;-65
2023/11/16 08:09:19;;;;;;;9.13;2.90;;;6.70;99.90;;;;;;5075983;28;20386;-58
2023/11/16 08:11:48;;;;;;;8.77;2.83;;;6.70;99.90;;;;;;5076315;28;20044;-58
2023/11/16 08:14:14;;;;;;;8.73;2.83;;;6.80;99.90;;;;;;5084861;28;20040;-58
2023/11/16 08:16:42;;;;;;;7.82;3.08;;;6.80;99.90;;;;;;5095557;28;20036;-58
2023/11/16 08:19:09;;;;;;;9.70;2.80;;;6.80;99.90;;;;;;5094200;28;20390;-58
2023/11/16 08:21:40;;;;;;;9.38;2.65;;;6.80;99.90;;;;;;5089651;28;20032;-58
2023/11/16 08:24:08;;;;;;;9.45;3.10;;;6.80;99.90;;;;;;5075725;28;20401;-65
2023/11/16 08:26:35;;;;;;;11.82;3.28;;;6.90;99.90;;;;;;5075748;28;20114;-65
2023/11/16 08:29:04;;;;;;;13.93;4.18;;;6.90;99.90;;;;;;5094734;28;20514;-65
2023/11/16 08:31:31;;;;;;;15.73;4.70;;;6.90;99.90;;;;;;5094812;28;20044;-66
2023/11/16 08:33:58;;;;;;;13.43;4.40;;;6.90;99.90;;;;;;5094935;28;20081;-65
2023/11/16 08:36:25;;;;;;;15.55;4.13;;;6.90;99.90;;;;;;5079603;28;20048;-65
2023/11/16 08:38:52;;;;;;;15.70;4.05;;;6.90;99.90;;;;;;5076711;28;20382;-66
2023/11/16 08:41:19;;;;;;;12.30;4.10;;;6.90;99.90;;;;;;5082721;28;20498;-66
2023/11/16 08:43:46;;;;;;;12.93;3.97;;;6.90;99.90;;;;;;5094004;28;20036;-66
2023/11/16 08:46:20;;;;;;;13.23;4.47;;;6.90;99.90;;;;;;5093240;28;20036;-66
2023/11/16 08:48:48;;;;;;;12.13;3.75;;;6.90;99.90;;;;;;5094789;28;20153;-66
2023/11/16 08:51:22;;;;;;;11.15;3.97;;;6.80;99.90;;;;;;5094809;28;20113;-65
2023/11/16 08:53:54;;;;;;;11.73;2.92;;;6.80;99.90;;;;;;5095096;28;20051;-65
2023/11/16 08:56:21;;;;;;;13.10;3.70;;;6.80;99.90;;;;;;5094555;28;20040;-65
2023/11/16 08:59:03;;;;;;;11.60;3.55;;;6.80;99.90;;;;;;5094862;28;20055;-65
2023/11/16 09:01:32;;;;;;;12.05;3.30;;;6.80;99.90;;;;;;5094314;28;20043;-65
2023/11/16 09:03:59;;;;;;;15.38;4.05;;;6.80;99.90;;;;;;5094785;28;20044;-65
2023/11/16 09:06:26;;;;;;;11.93;4.07;;;6.80;99.90;;;;;;5094404;28;20086;-66
2023/11/16 09:08:56;;;;;;;10.63;3.53;;;6.80;99.90;;;;;;5094328;28;20036;-65
2023/11/16 09:11:27;;;;;;;10.52;3.50;;;6.80;99.90;;;;;;5094426;28;20058;-65
2023/11/16 09:13:54;;;;;;;14.93;4.47;;;6.80;99.90;;;;;;5094881;28;20435;-65
2023/11/16 09:16:22;;;;;;;11.80;3.13;;;6.80;99.90;;;;;;5093852;28;20071;-65
2023/11/16 09:18:49;;;;;;;10.50;3.72;;;6.80;99.90;;;;;;5094479;28;20071;-65
2023/11/16 09:21:17;;;;;;;11.23;3.90;;;6.90;99.90;;;;;;5094127;28;20464;-64
2023/11/16 09:23:44;;;;;;;12.57;4.20;;;6.90;99.90;;;;;;5094952;28;20048;-65
2023/11/16 09:26:11;;;;;;;9.07;3.60;;;6.90;99.90;;;;;;5093919;28;20115;-65
2023/11/16 09:28:38;;;;;;;8.82;3.35;;;6.90;99.90;;;;;;5094194;28;20097;-65
2023/11/16 09:31:05;;;;;;;12.43;3.60;;;6.90;99.90;;;;;;5093989;28;20044;-64
2023/11/16 09:33:32;;;;;;;13.27;3.78;;;6.90;99.90;;;;;;5093905;28;20500;-64
2023/11/16 09:36:01;;;;;;;12.05;3.60;;;6.90;99.90;;;;;;5093973;28;20500;-59
2023/11/16 09:38:30;;;;;;;14.15;3.78;;;6.90;99.90;;;;;;5092705;28;20040;-64
2023/11/16 09:40:57;;;;;;;16.23;3.97;;;6.90;99.90;;;;;;5093739;28;20123;-65
2023/11/16 09:43:25;;;;;;;13.77;3.72;;;6.90;99.90;;;;;;5093976;28;20119;-63
2023/11/16 09:45:53;;;;;;;12.32;3.47;;;6.90;99.90;;;;;;5093802;28;20036;-66
2023/11/16 09:48:20;;;;;;;12.52;3.92;;;7.00;99.90;;;;;;5093636;28;20099;-64
2023/11/16 09:50:53;;;;;;;11.88;3.95;;;7.00;99.90;;;;;;5093944;28;20456;-64
2023/11/16 09:53:23;;;;;;;15.35;4.68;;;7.00;99.90;;;;;;5093993;28;20058;-64
2023/11/16 09:55:54;;;;;;;14.98;3.78;;;7.10;99.90;;;;;;5093508;28;20126;-60
2023/11/16 09:58:25;;;;;;;8.15;3.55;;;7.10;99.90;;;;;;5073598;28;20444;-64
2023/11/16 10:00:55;;;;;;;12.02;3.35;;;7.10;99.90;;;;;;5072743;28;20450;-65
2023/11/16 10:03:25;;;;;;;12.57;4.00;;;7.10;99.90;;;;;;5073691;28;20044;-65
2023/11/16 10:05:55;;;;;;;11.95;3.67;;;7.10;99.90;;;;;;5073432;28;20090;-65
2023/11/16 10:08:23;;;;;;;11.98;3.42;;;7.20;99.90;;;;;;5093312;28;20097;-66
2023/11/16 10:10:50;;;;;;;9.25;3.55;;;7.20;99.90;;;;;;5093352;28;20081;-66
2023/11/16 10:13:17;;;;;;;12.25;3.63;;;7.20;99.90;;;;;;5093352;28;20047;-58
2023/11/16 10:15:45;;;;;;;14.43;3.47;;;7.10;99.90;;;;;;5093352;28;20134;-59
2023/11/16 10:18:12;;;;;;;9.30;3.17;;;7.20;99.90;;;;;;5092874;28;20054;-59
2023/11/16 10:20:39;;;;;;;11.95;3.60;;;7.20;99.90;;;;;;5091802;28;20047;-58
2023/11/16 10:23:06;;;;;;;11.27;3.15;;;7.30;99.90;;;;;;5093014;28;20040;-58
2023/11/16 10:25:33;;;;;;;11.50;3.13;;;7.30;99.90;;;;;;5093232;28;20480;-60
2023/11/16 10:28:00;;;;;;;12.90;3.20;;;7.30;99.90;;;;;;5092878;28;20043;-58
2023/11/16 10:30:28;;;;;;;10.48;3.20;;;7.30;99.90;;;;;;5093145;28;20067;-58
2023/11/16 10:32:56;;;;;;;10.82;3.40;;;7.30;99.90;;;;;;5092814;28;20040;-60
2023/11/16 10:35:23;;;;;;;12.93;3.78;;;7.30;99.90;;;;;;5093122;28;20110;-59
2023/11/16 10:37:50;;;;;;;11.95;3.97;;;7.30;99.90;;;;;;5091593;28;20131;-59
2023/11/16 10:40:17;;;;;;;11.35;4.05;;;7.30;99.90;;;;;;5092896;28;20123;-59
2023/11/16 10:42:45;;;;;;;9.93;3.60;;;7.30;99.90;;;;;;5093034;28;20044;-59
2023/11/16 10:45:15;;;;;;;11.95;3.50;;;7.40;99.90;;;;;;5093107;28;20115;-59
2023/11/16 10:47:43;;;;;;;9.30;3.03;;;7.40;99.90;;;;;;5092529;28;20068;-59
2023/11/16 10:50:10;;;;;;;10.07;4.40;;;7.50;99.90;;;;;;5092895;28;20083;-59
2023/11/16 10:52:38;;;;;;;13.07;4.70;;;7.50;99.90;;;;;;5092641;28;20047;-66
2023/11/16 10:55:07;;;;;;;13.43;4.78;;;7.50;99.90;;;;;;5087968;28;20043;-59
2023/11/16 10:57:35;;;;;;;14.00;5.50;;;7.50;99.90;;;;;;5092421;28;20041;-59
2023/11/16 11:00:03;;;;;;;16.40;5.43;;;7.50;99.90;;;;;;5092867;28;20052;-59
2023/11/16 11:02:30;;;;;;;20.10;7.15;;;7.40;99.90;;;;;;5081694;28;20046;-59
2023/11/16 11:04:58;;;;;;;18.08;7.13;;;7.30;99.90;;;;;;5072697;28;20037;-60
2023/11/16 11:07:26;;;;;;;19.00;7.50;;;7.30;99.90;;;;;;5072568;28;20047;-60
2023/11/16 11:09:55;;;;;;;20.38;7.05;;;7.30;99.90;;;;;;5072590;28;20135;-60
2023/11/16 11:12:22;;;;;;;19.00;7.00;;;7.30;99.90;;;;;;5075529;28;20044;-60
2023/11/16 11:14:48;;;;;;;21.70;7.88;;;7.20;99.90;;;;;;5076607;28;20048;-60
2023/11/16 11:17:15;;;;;;;26.80;8.10;;;7.30;99.90;;;;;;5076513;28;20040;-60
2023/11/16 11:19:42;;;;;;;18.08;7.95;;;7.20;99.90;;;;;;5075190;28;20436;-60
2023/11/16 11:22:09;;;;;;;22.08;7.57;;;7.30;99.90;;;;;;5076192;28;20051;-60
2023/11/16 11:24:36;;;;;;;17.05;7.70;;;7.30;99.90;;;;;;5075091;28;20057;-60
2023/11/16 11:27:03;;;;;;;19.42;8.02;;;7.30;99.90;;;;;;5078498;28;20411;-59
2023/11/16 11:29:30;;;;;;;16.23;8.05;;;7.30;99.90;;;;;;5096273;28;20446;-59
2023/11/16 11:32:03;;;;;;;17.38;7.97;;;7.30;99.90;;;;;;5096227;28;20039;-59
2023/11/16 11:34:36;;;;;;;15.00;7.78;;;7.30;99.90;;;;;;5096501;28;20378;-59
2023/11/16 11:37:07;;;;;;;17.13;7.65;;;7.30;99.90;;;;;;5078085;28;20063;-60
2023/11/16 11:39:34;;;;;;;17.27;7.65;;;7.40;99.90;;;;;;5096247;28;20531;-60
2023/11/16 11:42:01;;;;;;;15.52;7.28;;;7.40;99.90;;;;;;5094702;28;20039;-60
2023/11/16 11:44:28;;;;;;;24.42;7.82;;;7.40;99.90;;;;;;5096558;28;20048;-60
2023/11/16 11:46:56;;;;;;;17.38;7.80;;;7.40;99.90;;;;;;5096112;28;20036;-66
2023/11/16 11:49:24;;;;;;;18.38;7.60;;;7.50;99.90;;;;;;5096221;28;20040;-65
2023/11/16 11:51:50;;;;;;;20.75;8.27;;;7.50;99.90;;;;;;5096158;28;20040;-66
2023/11/16 11:54:17;;;;;;;26.25;9.50;;;7.50;99.90;;;;;;5096036;28;20040;-65
2023/11/16 11:56:45;;;;;;;14.88;7.80;;;7.50;99.90;;;;;;5095778;28;20493;-65
2023/11/16 11:59:12;;;;;;;20.65;8.15;;;7.50;99.90;;;;;;5096245;28;20055;-65
2023/11/16 12:01:39;;;;;;;17.33;7.97;;;7.40;99.90;;;;;;5095917;28;20047;-65
2023/11/16 12:04:08;;;;;;;18.38;8.35;;;7.50;99.90;;;;;;5095630;28;20067;-59
2023/11/16 12:06:46;;;;;;;19.92;8.10;;;7.60;99.90;;;;;;5095925;28;20423;-59
2023/11/16 12:09:12;;;;;;;15.90;7.80;;;7.60;99.90;;;;;;5075512;28;20076;-59
2023/11/16 12:11:41;;;;;;;14.98;7.78;;;7.60;99.90;;;;;;5075700;28;20036;-60
2023/11/16 12:14:10;;;;;;;26.63;8.93;;;7.60;99.90;;;;;;5075682;28;20094;-59
2023/11/16 12:16:37;;;;;;;21.88;7.00;;;7.60;99.90;;;;;;5057500;28;20048;-59
2023/11/16 12:19:08;;;;;;;18.75;6.50;;;7.60;99.90;;;;;;5074580;28;20044;-59
2023/11/16 12:21:36;;;;;;;16.35;5.93;;;7.60;99.90;;;;;;5076283;28;20446;-59
2023/11/16 12:24:02;;;;;;;15.60;6.72;;;7.60;99.90;;;;;;5074881;28;20052;-59
2023/11/16 12:26:29;;;;;;;15.73;5.78;;;7.60;99.90;;;;;;5075023;28;20055;-59
2023/11/16 12:28:56;;;;;;;15.90;6.47;;;7.60;99.90;;;;;;5075380;28;20041;-59
2023/11/16 12:31:26;;;;;;;18.40;6.95;;;7.60;99.90;;;;;;5075567;28;20048;-59
2023/11/16 12:33:55;;;;;;;14.93;6.40;;;7.70;99.90;;;;;;5075385;28;20079;-59
2023/11/16 12:36:22;;;;;;;16.48;5.90;;;7.70;99.90;;;;;;5075569;28;20049;-59
2023/11/16 12:38:49;;;;;;;13.48;6.32;;;7.70;99.90;;;;;;5074318;28;20055;-59
2023/11/16 12:41:16;;;;;;;16.17;6.38;;;7.80;99.90;;;;;;5072914;28;20043;-59
2023/11/16 12:43:43;;;;;;;19.92;6.97;;;7.80;99.90;;;;;;5074142;28;20051;-59
2023/11/16 12:46:11;;;;;;;18.52;6.78;;;7.80;99.90;;;;;;5074124;28;20098;-60
2023/11/16 12:48:38;;;;;;;21.58;6.88;;;7.90;99.90;;;;;;5073968;28;20051;-59
2023/11/16 12:51:06;;;;;;;18.95;6.15;;;7.90;99.90;;;;;;5073816;28;20063;-66
2023/11/16 12:53:33;;;;;;;16.58;7.18;;;8.00;99.90;;;;;;5073864;28;20044;-65